Santa Clara, Oregon
Current Conditions -  °F | °C
As of 10:54 AM on Wednesday 26 Nov 2014 (Local Time) from KEUG Reporting Station
Broken Clouds Broken Clouds  
Wind Chill: 56°   Ceiling: 25000
Heat Index: 56°   Visibility: 10mi
Dew Point: 48°   Wind: 3mph
Humidity: 75%   Direction: 190°S
Pressure: 30.19"   Gusts: NA
Location:  44.1°N, 123.12°W
Report Text: KEUG 261854Z 19003KT 10SM BKN250 13/09 A3019 RMK AO2 SLP224 T01330089
Loading
Personal Weather Stations






























Interactive Weather Map New forecast layout! Learn more

10-Day Weather Forecast

Advertisements
Track Severe Weather on mobile